sensor_id;sensor_type;location;lat;lon;timestamp;temperature;humidity
25248;DHT22;13191;47.472;11.214;2023-04-08T00:01:51;4.20;99.90
25248;DHT22;13191;47.472;11.214;2023-04-08T00:04:17;4.30;99.90
25248;DHT22;13191;47.472;11.214;2023-04-08T00:06:43;4.30;99.90
25248;DHT22;13191;47.472;11.214;2023-04-08T00:09:08;4.30;99.90
25248;DHT22;13191;47.472;11.214;2023-04-08T00:11:34;4.30;99.90
25248;DHT22;13191;47.472;11.214;2023-04-08T00:14:01;4.30;99.90
25248;DHT22;13191;47.472;11.214;2023-04-08T00:16:27;4.30;99.90
25248;DHT22;13191;47.472;11.214;2023-04-08T00:18:52;4.30;99.90
25248;DHT22;13191;47.472;11.214;2023-04-08T00:21:18;4.30;99.90
25248;DHT22;13191;47.472;11.214;2023-04-08T00:23:45;4.30;99.90
25248;DHT22;13191;47.472;11.214;2023-04-08T00:26:10;4.40;99.90
25248;DHT22;13191;47.472;11.214;2023-04-08T00:28:36;4.30;99.90
25248;DHT22;13191;47.472;11.214;2023-04-08T00:31:02;4.30;99.90
25248;DHT22;13191;47.472;11.214;2023-04-08T00:33:27;4.30;99.90
25248;DHT22;13191;47.472;11.214;2023-04-08T00:35:53;4.30;99.90
25248;DHT22;13191;47.472;11.214;2023-04-08T00:38:18;4.30;99.90
25248;DHT22;13191;47.472;11.214;2023-04-08T00:40:45;4.30;99.90
25248;DHT22;13191;47.472;11.214;2023-04-08T00:43:11;4.30;99.90
25248;DHT22;13191;47.472;11.214;2023-04-08T00:45:36;4.30;99.90
25248;DHT22;13191;47.472;11.214;2023-04-08T00:48:02;4.30;99.90
25248;DHT22;13191;47.472;11.214;2023-04-08T00:50:27;4.40;99.90
25248;DHT22;13191;47.472;11.214;2023-04-08T00:52:53;4.40;99.90
25248;DHT22;13191;47.472;11.214;2023-04-08T00:55:18;4.40;99.90
25248;DHT22;13191;47.472;11.214;2023-04-08T00:57:44;4.40;99.90
25248;DHT22;13191;47.472;11.214;2023-04-08T01:00:10;4.40;99.90
25248;DHT22;13191;47.472;11.214;2023-04-08T01:03:20;4.50;99.90
25248;DHT22;13191;47.472;11.214;2023-04-08T01:08:00;4.40;99.90
25248;DHT22;13191;47.472;11.214;2023-04-08T01:10:30;4.30;99.90
25248;DHT22;13191;47.472;11.214;2023-04-08T01:13:03;4.20;99.90
25248;DHT22;13191;47.472;11.214;2023-04-08T01:15:29;4.30;99.90
25248;DHT22;13191;47.472;11.214;2023-04-08T01:17:55;4.20;99.90
25248;DHT22;13191;47.472;11.214;2023-04-08T01:20:23;4.20;99.90
25248;DHT22;13191;47.472;11.214;2023-04-08T01:23:09;4.30;99.90
25248;DHT22;13191;47.472;11.214;2023-04-08T01:25:37;4.20;99.90
25248;DHT22;13191;47.472;11.214;2023-04-08T01:28:07;4.20;99.90
25248;DHT22;13191;47.472;11.214;2023-04-08T01:30:34;4.30;99.90
25248;DHT22;13191;47.472;11.214;2023-04-08T01:33:02;4.30;99.90
25248;DHT22;13191;47.472;11.214;2023-04-08T01:35:28;4.30;99.90
25248;DHT22;13191;47.472;11.214;2023-04-08T01:37:54;4.20;99.90
25248;DHT22;13191;47.472;11.214;2023-04-08T01:40:20;4.20;99.90
25248;DHT22;13191;47.472;11.214;2023-04-08T01:42:46;4.10;99.90
25248;DHT22;13191;47.472;11.214;2023-04-08T01:45:12;4.10;99.90
25248;DHT22;13191;47.472;11.214;2023-04-08T01:47:38;4.00;99.90
25248;DHT22;13191;47.472;11.214;2023-04-08T01:50:05;4.00;99.90
25248;DHT22;13191;47.472;11.214;2023-04-08T01:52:32;3.90;99.90
25248;DHT22;13191;47.472;11.214;2023-04-08T01:54:59;3.90;99.90
25248;DHT22;13191;47.472;11.214;2023-04-08T01:57:26;3.90;99.90
25248;DHT22;13191;47.472;11.214;2023-04-08T01:59:52;3.80;99.90
25248;DHT22;13191;47.472;11.214;2023-04-08T02:02:21;3.70;99.90
25248;DHT22;13191;47.472;11.214;2023-04-08T02:04:47;3.80;99.90
25248;DHT22;13191;47.472;11.214;2023-04-08T02:07:12;3.80;99.90
25248;DHT22;13191;47.472;11.214;2023-04-08T02:09:38;3.80;99.90
25248;DHT22;13191;47.472;11.214;2023-04-08T02:12:04;3.90;99.90
25248;DHT22;13191;47.472;11.214;2023-04-08T02:14:29;3.90;99.90
25248;DHT22;13191;47.472;11.214;2023-04-08T02:16:59;3.90;99.90
25248;DHT22;13191;47.472;11.214;2023-04-08T02:19:30;3.90;99.90
25248;DHT22;13191;47.472;11.214;2023-04-08T02:22:01;3.90;99.90
25248;DHT22;13191;47.472;11.214;2023-04-08T02:24:29;3.90;99.90
25248;DHT22;13191;47.472;11.214;2023-04-08T02:26:57;3.90;99.90
25248;DHT22;13191;47.472;11.214;2023-04-08T02:29:23;3.80;99.90
25248;DHT22;13191;47.472;11.214;2023-04-08T02:31:50;3.90;99.90
25248;DHT22;13191;47.472;11.214;2023-04-08T02:34:16;3.90;99.90
25248;DHT22;13191;47.472;11.214;2023-04-08T02:36:42;3.90;99.90
25248;DHT22;13191;47.472;11.214;2023-04-08T02:39:10;3.90;99.90
25248;DHT22;13191;47.472;11.214;2023-04-08T02:41:35;3.90;99.90
25248;DHT22;13191;47.472;11.214;2023-04-08T02:44:01;3.80;99.90
25248;DHT22;13191;47.472;11.214;2023-04-08T02:46:26;3.80;99.90
25248;DHT22;13191;47.472;11.214;2023-04-08T02:48:52;3.90;99.90
25248;DHT22;13191;47.472;11.214;2023-04-08T02:51:17;3.80;99.90
25248;DHT22;13191;47.472;11.214;2023-04-08T02:53:43;3.80;99.90
25248;DHT22;13191;47.472;11.214;2023-04-08T02:56:09;3.80;99.90
25248;DHT22;13191;47.472;11.214;2023-04-08T02:58:34;3.80;99.90
25248;DHT22;13191;47.472;11.214;2023-04-08T03:01:00;3.80;99.90
25248;DHT22;13191;47.472;11.214;2023-04-08T03:03:25;3.70;99.90
25248;DHT22;13191;47.472;11.214;2023-04-08T03:05:55;3.60;99.90
25248;DHT22;13191;47.472;11.214;2023-04-08T03:08:21;3.60;99.90
25248;DHT22;13191;47.472;11.214;2023-04-08T03:10:47;3.60;99.90
25248;DHT22;13191;47.472;11.214;2023-04-08T03:13:13;3.60;99.90
25248;DHT22;13191;47.472;11.214;2023-04-08T03:15:39;3.70;99.90
25248;DHT22;13191;47.472;11.214;2023-04-08T03:18:04;3.70;99.90
25248;DHT22;13191;47.472;11.214;2023-04-08T03:20:30;3.60;99.90
25248;DHT22;13191;47.472;11.214;2023-04-08T03:22:55;3.60;99.90
25248;DHT22;13191;47.472;11.214;2023-04-08T03:25:21;3.60;99.90
25248;DHT22;13191;47.472;11.214;2023-04-08T03:27:46;3.60;99.90
25248;DHT22;13191;47.472;11.214;2023-04-08T03:30:12;3.60;99.90
25248;DHT22;13191;47.472;11.214;2023-04-08T03:32:38;3.60;99.90
25248;DHT22;13191;47.472;11.214;2023-04-08T03:35:03;3.60;99.90
25248;DHT22;13191;47.472;11.214;2023-04-08T03:37:29;3.70;99.90
25248;DHT22;13191;47.472;11.214;2023-04-08T03:39:55;3.70;99.90
25248;DHT22;13191;47.472;11.214;2023-04-08T03:42:20;3.70;99.90
25248;DHT22;13191;47.472;11.214;2023-04-08T03:44:46;3.70;99.90
25248;DHT22;13191;47.472;11.214;2023-04-08T03:47:11;3.70;99.90
25248;DHT22;13191;47.472;11.214;2023-04-08T03:49:37;3.70;99.90
25248;DHT22;13191;47.472;11.214;2023-04-08T03:52:02;3.70;99.90
25248;DHT22;13191;47.472;11.214;2023-04-08T03:54:28;3.70;99.90
25248;DHT22;13191;47.472;11.214;2023-04-08T03:56:54;3.70;99.90
25248;DHT22;13191;47.472;11.214;2023-04-08T03:59:20;3.70;99.90
25248;DHT22;13191;47.472;11.214;2023-04-08T04:01:45;3.70;99.90
25248;DHT22;13191;47.472;11.214;2023-04-08T04:04:11;3.70;99.90
25248;DHT22;13191;47.472;11.214;2023-04-08T04:06:37;3.60;99.90
25248;DHT22;13191;47.472;11.214;2023-04-08T04:09:02;3.60;99.90
25248;DHT22;13191;47.472;11.214;2023-04-08T04:11:28;3.50;99.90
25248;DHT22;13191;47.472;11.214;2023-04-08T04:13:53;3.50;99.90
25248;DHT22;13191;47.472;11.214;2023-04-08T04:16:19;3.50;99.90
25248;DHT22;13191;47.472;11.214;2023-04-08T04:18:44;3.40;99.90
25248;DHT22;13191;47.472;11.214;2023-04-08T04:21:10;3.40;99.90
25248;DHT22;13191;47.472;11.214;2023-04-08T04:23:35;3.40;99.90
25248;DHT22;13191;47.472;11.214;2023-04-08T04:26:01;3.40;99.90
25248;DHT22;13191;47.472;11.214;2023-04-08T04:28:26;3.30;99.90
25248;DHT22;13191;47.472;11.214;2023-04-08T04:30:52;3.20;99.90
25248;DHT22;13191;47.472;11.214;2023-04-08T04:33:17;3.20;99.90
25248;DHT22;13191;47.472;11.214;2023-04-08T04:35:43;3.30;99.90
25248;DHT22;13191;47.472;11.214;2023-04-08T04:38:08;3.30;99.90
25248;DHT22;13191;47.472;11.214;2023-04-08T04:40:39;3.40;99.90
25248;DHT22;13191;47.472;11.214;2023-04-08T04:43:05;3.50;99.90
25248;DHT22;13191;47.472;11.214;2023-04-08T04:45:31;3.50;99.90
25248;DHT22;13191;47.472;11.214;2023-04-08T04:47:56;3.50;99.90
25248;DHT22;13191;47.472;11.214;2023-04-08T04:50:22;3.50;99.90
25248;DHT22;13191;47.472;11.214;2023-04-08T04:52:47;3.50;99.90
25248;DHT22;13191;47.472;11.214;2023-04-08T04:55:13;3.40;99.90
25248;DHT22;13191;47.472;11.214;2023-04-08T04:57:40;3.50;99.90
25248;DHT22;13191;47.472;11.214;2023-04-08T05:00:06;3.50;99.90
25248;DHT22;13191;47.472;11.214;2023-04-08T05:02:32;3.40;99.90
25248;DHT22;13191;47.472;11.214;2023-04-08T05:04:58;3.40;99.90
25248;DHT22;13191;47.472;11.214;2023-04-08T05:07:23;3.40;99.90
25248;DHT22;13191;47.472;11.214;2023-04-08T05:09:50;3.40;99.90
25248;DHT22;13191;47.472;11.214;2023-04-08T05:12:16;3.40;99.90
25248;DHT22;13191;47.472;11.214;2023-04-08T05:14:41;3.20;99.90
25248;DHT22;13191;47.472;11.214;2023-04-08T05:17:07;3.20;99.90
25248;DHT22;13191;47.472;11.214;2023-04-08T05:19:33;3.30;99.90
25248;DHT22;13191;47.472;11.214;2023-04-08T05:21:58;3.40;99.90
25248;DHT22;13191;47.472;11.214;2023-04-08T05:24:24;3.40;99.90
25248;DHT22;13191;47.472;11.214;2023-04-08T05:26:49;3.40;99.90
25248;DHT22;13191;47.472;11.214;2023-04-08T05:29:17;3.50;99.90
25248;DHT22;13191;47.472;11.214;2023-04-08T05:31:43;3.50;99.90
25248;DHT22;13191;47.472;11.214;2023-04-08T05:34:09;3.50;99.90
25248;DHT22;13191;47.472;11.214;2023-04-08T05:36:35;3.40;99.90
25248;DHT22;13191;47.472;11.214;2023-04-08T05:39:01;3.40;99.90
25248;DHT22;13191;47.472;11.214;2023-04-08T05:41:26;3.50;99.90
25248;DHT22;13191;47.472;11.214;2023-04-08T05:43:51;3.50;99.90
25248;DHT22;13191;47.472;11.214;2023-04-08T05:46:17;3.60;99.90
25248;DHT22;13191;47.472;11.214;2023-04-08T05:48:42;3.60;99.90
25248;DHT22;13191;47.472;11.214;2023-04-08T05:51:14;3.60;99.90
25248;DHT22;13191;47.472;11.214;2023-04-08T05:53:40;3.60;99.90
25248;DHT22;13191;47.472;11.214;2023-04-08T05:56:06;3.70;99.90
25248;DHT22;13191;47.472;11.214;2023-04-08T05:58:31;3.60;99.90
25248;DHT22;13191;47.472;11.214;2023-04-08T06:00:58;3.70;99.90
25248;DHT22;13191;47.472;11.214;2023-04-08T06:03:23;3.70;99.90
25248;DHT22;13191;47.472;11.214;2023-04-08T06:05:50;3.70;99.90
25248;DHT22;13191;47.472;11.214;2023-04-08T06:08:16;3.70;99.90
25248;DHT22;13191;47.472;11.214;2023-04-08T06:10:47;3.70;99.90
25248;DHT22;13191;47.472;11.214;2023-04-08T06:13:13;3.70;99.90
25248;DHT22;13191;47.472;11.214;2023-04-08T06:15:38;3.80;99.90
25248;DHT22;13191;47.472;11.214;2023-04-08T06:18:04;3.80;99.90
25248;DHT22;13191;47.472;11.214;2023-04-08T06:20:29;3.80;99.90
25248;DHT22;13191;47.472;11.214;2023-04-08T06:22:55;3.70;99.90
25248;DHT22;13191;47.472;11.214;2023-04-08T06:25:21;3.70;99.90
25248;DHT22;13191;47.472;11.214;2023-04-08T06:27:47;3.70;99.90
25248;DHT22;13191;47.472;11.214;2023-04-08T06:30:13;3.80;99.90
25248;DHT22;13191;47.472;11.214;2023-04-08T06:32:38;3.80;99.90
25248;DHT22;13191;47.472;11.214;2023-04-08T06:35:05;3.80;99.90
25248;DHT22;13191;47.472;11.214;2023-04-08T06:37:31;3.90;99.90
25248;DHT22;13191;47.472;11.214;2023-04-08T06:39:59;3.90;99.90
25248;DHT22;13191;47.472;11.214;2023-04-08T06:42:25;3.90;99.90
25248;DHT22;13191;47.472;11.214;2023-04-08T06:44:53;4.00;99.90
25248;DHT22;13191;47.472;11.214;2023-04-08T06:47:18;4.00;99.90
25248;DHT22;13191;47.472;11.214;2023-04-08T06:49:44;4.10;99.90
25248;DHT22;13191;47.472;11.214;2023-04-08T06:52:11;4.10;99.90
25248;DHT22;13191;47.472;11.214;2023-04-08T06:54:37;4.10;99.90
25248;DHT22;13191;47.472;11.214;2023-04-08T06:57:04;4.10;99.90
25248;DHT22;13191;47.472;11.214;2023-04-08T06:59:29;4.10;99.90
25248;DHT22;13191;47.472;11.214;2023-04-08T07:01:56;4.20;99.90
25248;DHT22;13191;47.472;11.214;2023-04-08T07:04:21;4.20;99.90
25248;DHT22;13191;47.472;11.214;2023-04-08T07:06:47;4.30;99.90
25248;DHT22;13191;47.472;11.214;2023-04-08T07:09:14;4.30;99.90
25248;DHT22;13191;47.472;11.214;2023-04-08T07:11:39;4.30;99.90
25248;DHT22;13191;47.472;11.214;2023-04-08T07:14:05;4.20;99.90
25248;DHT22;13191;47.472;11.214;2023-04-08T07:16:31;4.30;99.90
25248;DHT22;13191;47.472;11.214;2023-04-08T07:18:59;4.30;99.90
25248;DHT22;13191;47.472;11.214;2023-04-08T07:21:27;4.40;99.90
25248;DHT22;13191;47.472;11.214;2023-04-08T07:23:55;4.50;99.90
25248;DHT22;13191;47.472;11.214;2023-04-08T07:26:20;4.50;99.90
25248;DHT22;13191;47.472;11.214;2023-04-08T07:28:47;4.60;99.90
25248;DHT22;13191;47.472;11.214;2023-04-08T07:31:16;4.60;99.90
25248;DHT22;13191;47.472;11.214;2023-04-08T07:33:42;4.70;99.90
25248;DHT22;13191;47.472;11.214;2023-04-08T07:36:09;4.80;99.90
25248;DHT22;13191;47.472;11.214;2023-04-08T07:38:35;4.80;99.90
25248;DHT22;13191;47.472;11.214;2023-04-08T07:41:00;4.80;99.90
25248;DHT22;13191;47.472;11.214;2023-04-08T07:43:26;4.80;99.90
25248;DHT22;13191;47.472;11.214;2023-04-08T07:45:52;4.80;99.90
25248;DHT22;13191;47.472;11.214;2023-04-08T07:48:17;4.90;99.90
25248;DHT22;13191;47.472;11.214;2023-04-08T07:50:43;4.90;99.90
25248;DHT22;13191;47.472;11.214;2023-04-08T07:53:10;4.90;99.90
25248;DHT22;13191;47.472;11.214;2023-04-08T07:55:35;4.90;99.90
25248;DHT22;13191;47.472;11.214;2023-04-08T07:58:01;5.00;99.90
25248;DHT22;13191;47.472;11.214;2023-04-08T08:00:27;5.10;99.90
25248;DHT22;13191;47.472;11.214;2023-04-08T08:05:20;5.20;99.90
25248;DHT22;13191;47.472;11.214;2023-04-08T08:07:46;5.30;99.90
25248;DHT22;13191;47.472;11.214;2023-04-08T08:10:11;5.40;99.90
25248;DHT22;13191;47.472;11.214;2023-04-08T08:12:37;5.50;99.90
25248;DHT22;13191;47.472;11.214;2023-04-08T08:15:02;5.60;99.90
25248;DHT22;13191;47.472;11.214;2023-04-08T08:17:31;5.70;99.90
25248;DHT22;13191;47.472;11.214;2023-04-08T08:19:58;5.70;99.90
25248;DHT22;13191;47.472;11.214;2023-04-08T08:22:23;5.70;99.90
25248;DHT22;13191;47.472;11.214;2023-04-08T08:24:53;5.80;99.90
25248;DHT22;13191;47.472;11.214;2023-04-08T08:27:19;5.90;99.90
25248;DHT22;13191;47.472;11.214;2023-04-08T08:29:44;5.90;99.90
25248;DHT22;13191;47.472;11.214;2023-04-08T08:32:11;5.90;99.90
25248;DHT22;13191;47.472;11.214;2023-04-08T08:34:37;6.00;99.90
25248;DHT22;13191;47.472;11.214;2023-04-08T08:37:03;6.00;99.90
25248;DHT22;13191;47.472;11.214;2023-04-08T08:39:28;6.10;99.90
25248;DHT22;13191;47.472;11.214;2023-04-08T08:41:54;6.10;99.90
25248;DHT22;13191;47.472;11.214;2023-04-08T08:44:21;6.10;99.90
25248;DHT22;13191;47.472;11.214;2023-04-08T08:46:48;6.10;99.90
25248;DHT22;13191;47.472;11.214;2023-04-08T08:49:14;6.20;99.90
25248;DHT22;13191;47.472;11.214;2023-04-08T08:51:39;6.10;99.90
25248;DHT22;13191;47.472;11.214;2023-04-08T08:54:06;6.20;99.90
25248;DHT22;13191;47.472;11.214;2023-04-08T08:56:31;6.20;99.90
25248;DHT22;13191;47.472;11.214;2023-04-08T08:58:57;6.30;99.90
25248;DHT22;13191;47.472;11.214;2023-04-08T09:03:59;6.60;99.90
25248;DHT22;13191;47.472;11.214;2023-04-08T09:06:30;6.50;99.90
25248;DHT22;13191;47.472;11.214;2023-04-08T09:08:55;6.60;99.90
25248;DHT22;13191;47.472;11.214;2023-04-08T09:11:21;6.70;99.90
25248;DHT22;13191;47.472;11.214;2023-04-08T09:13:47;6.80;99.90
25248;DHT22;13191;47.472;11.214;2023-04-08T09:16:13;6.70;99.90
25248;DHT22;13191;47.472;11.214;2023-04-08T09:18:40;6.70;99.90
25248;DHT22;13191;47.472;11.214;2023-04-08T09:21:17;6.70;99.90
25248;DHT22;13191;47.472;11.214;2023-04-08T09:23:47;6.60;99.90
25248;DHT22;13191;47.472;11.214;2023-04-08T09:26:17;6.60;99.90
25248;DHT22;13191;47.472;11.214;2023-04-08T09:28:56;6.60;99.90
25248;DHT22;13191;47.472;11.214;2023-04-08T09:31:22;6.30;99.90
25248;DHT22;13191;47.472;11.214;2023-04-08T09:33:48;6.30;99.90
25248;DHT22;13191;47.472;11.214;2023-04-08T09:36:14;6.20;99.90
25248;DHT22;13191;47.472;11.214;2023-04-08T09:38:40;6.10;99.90
25248;DHT22;13191;47.472;11.214;2023-04-08T09:41:06;6.00;99.90
25248;DHT22;13191;47.472;11.214;2023-04-08T09:43:39;6.10;99.90
25248;DHT22;13191;47.472;11.214;2023-04-08T09:46:06;6.20;99.90
25248;DHT22;13191;47.472;11.214;2023-04-08T09:48:38;6.00;99.90
25248;DHT22;13191;47.472;11.214;2023-04-08T09:51:04;6.00;99.90
25248;DHT22;13191;47.472;11.214;2023-04-08T09:53:36;6.00;99.90
25248;DHT22;13191;47.472;11.214;2023-04-08T09:56:06;6.00;99.90
25248;DHT22;13191;47.472;11.214;2023-04-08T09:58:38;6.00;99.90
25248;DHT22;13191;47.472;11.214;2023-04-08T10:01:07;6.00;99.90
25248;DHT22;13191;47.472;11.214;2023-04-08T10:03:36;5.90;99.90
25248;DHT22;13191;47.472;11.214;2023-04-08T10:06:04;6.00;99.90
25248;DHT22;13191;47.472;11.214;2023-04-08T10:08:32;5.70;99.90
25248;DHT22;13191;47.472;11.214;2023-04-08T10:10:58;5.70;99.90
25248;DHT22;13191;47.472;11.214;2023-04-08T10:13:25;5.70;99.90
25248;DHT22;13191;47.472;11.214;2023-04-08T10:16:16;5.70;99.90
25248;DHT22;13191;47.472;11.214;2023-04-08T10:18:38;5.70;99.90
25248;DHT22;13191;47.472;11.214;2023-04-08T10:21:03;5.60;99.90
25248;DHT22;13191;47.472;11.214;2023-04-08T10:26:33;5.50;99.90
25248;DHT22;13191;47.472;11.214;2023-04-08T10:31:46;5.70;99.90
25248;DHT22;13191;47.472;11.214;2023-04-08T10:34:19;5.80;99.90
25248;DHT22;13191;47.472;11.214;2023-04-08T10:36:45;5.90;99.90
25248;DHT22;13191;47.472;11.214;2023-04-08T10:39:12;5.90;99.90
25248;DHT22;13191;47.472;11.214;2023-04-08T10:41:41;6.00;99.90
25248;DHT22;13191;47.472;11.214;2023-04-08T10:44:20;6.10;99.90
25248;DHT22;13191;47.472;11.214;2023-04-08T10:46:51;6.10;99.90
25248;DHT22;13191;47.472;11.214;2023-04-08T10:49:17;6.20;99.90
25248;DHT22;13191;47.472;11.214;2023-04-08T10:51:43;6.20;99.90
25248;DHT22;13191;47.472;11.214;2023-04-08T10:54:15;6.30;99.90
25248;DHT22;13191;47.472;11.214;2023-04-08T10:56:45;6.50;99.90
25248;DHT22;13191;47.472;11.214;2023-04-08T10:59:35;6.70;99.90
25248;DHT22;13191;47.472;11.214;2023-04-08T11:02:01;6.80;99.90
25248;DHT22;13191;47.472;11.214;2023-04-08T11:04:29;6.70;99.90
25248;DHT22;13191;47.472;11.214;2023-04-08T11:06:55;6.60;99.90
25248;DHT22;13191;47.472;11.214;2023-04-08T11:09:23;6.40;99.90
25248;DHT22;13191;47.472;11.214;2023-04-08T11:11:49;6.30;99.90
25248;DHT22;13191;47.472;11.214;2023-04-08T11:14:20;6.20;99.90
25248;DHT22;13191;47.472;11.214;2023-04-08T11:16:48;6.10;99.90
25248;DHT22;13191;47.472;11.214;2023-04-08T11:19:13;6.10;99.90
25248;DHT22;13191;47.472;11.214;2023-04-08T11:21:39;6.00;99.90
25248;DHT22;13191;47.472;11.214;2023-04-08T11:24:05;6.00;99.90
25248;DHT22;13191;47.472;11.214;2023-04-08T11:26:31;6.00;99.90
25248;DHT22;13191;47.472;11.214;2023-04-08T11:28:57;5.90;99.90
25248;DHT22;13191;47.472;11.214;2023-04-08T11:31:25;5.90;99.90
25248;DHT22;13191;47.472;11.214;2023-04-08T11:33:52;5.80;99.90
25248;DHT22;13191;47.472;11.214;2023-04-08T11:36:19;5.80;99.90
25248;DHT22;13191;47.472;11.214;2023-04-08T11:38:46;5.70;99.90
25248;DHT22;13191;47.472;11.214;2023-04-08T11:41:12;5.70;99.90
25248;DHT22;13191;47.472;11.214;2023-04-08T11:43:38;5.70;99.90
25248;DHT22;13191;47.472;11.214;2023-04-08T11:46:07;5.60;99.90
25248;DHT22;13191;47.472;11.214;2023-04-08T11:49:00;5.70;99.90
25248;DHT22;13191;47.472;11.214;2023-04-08T11:51:26;5.70;99.90
25248;DHT22;13191;47.472;11.214;2023-04-08T11:53:52;5.60;99.90
25248;DHT22;13191;47.472;11.214;2023-04-08T11:56:19;5.60;99.90
25248;DHT22;13191;47.472;11.214;2023-04-08T11:58:46;5.60;99.90
25248;DHT22;13191;47.472;11.214;2023-04-08T12:01:12;5.60;99.90
25248;DHT22;13191;47.472;11.214;2023-04-08T12:03:47;5.50;99.90
25248;DHT22;13191;47.472;11.214;2023-04-08T12:06:18;5.50;99.90
25248;DHT22;13191;47.472;11.214;2023-04-08T12:08:44;5.50;99.90
25248;DHT22;13191;47.472;11.214;2023-04-08T12:11:14;5.40;99.90
25248;DHT22;13191;47.472;11.214;2023-04-08T12:13:40;5.40;99.90
25248;DHT22;13191;47.472;11.214;2023-04-08T12:16:06;5.30;99.90
25248;DHT22;13191;47.472;11.214;2023-04-08T12:18:31;5.30;99.90
25248;DHT22;13191;47.472;11.214;2023-04-08T12:20:57;5.20;99.90
25248;DHT22;13191;47.472;11.214;2023-04-08T12:23:23;5.20;99.90
25248;DHT22;13191;47.472;11.214;2023-04-08T12:25:49;5.20;99.90
25248;DHT22;13191;47.472;11.214;2023-04-08T12:28:19;5.20;99.90
25248;DHT22;13191;47.472;11.214;2023-04-08T12:30:48;5.20;99.90
25248;DHT22;13191;47.472;11.214;2023-04-08T12:33:15;5.10;99.90
25248;DHT22;13191;47.472;11.214;2023-04-08T12:35:42;5.10;99.90
25248;DHT22;13191;47.472;11.214;2023-04-08T12:38:07;5.10;99.90
25248;DHT22;13191;47.472;11.214;2023-04-08T12:40:33;5.10;99.90
25248;DHT22;13191;47.472;11.214;2023-04-08T12:42:59;4.90;99.90
25248;DHT22;13191;47.472;11.214;2023-04-08T12:45:24;4.90;99.90
25248;DHT22;13191;47.472;11.214;2023-04-08T12:47:50;4.90;99.90
25248;DHT22;13191;47.472;11.214;2023-04-08T12:50:16;4.90;99.90
25248;DHT22;13191;47.472;11.214;2023-04-08T12:52:41;5.00;99.90
25248;DHT22;13191;47.472;11.214;2023-04-08T12:55:07;5.00;99.90
25248;DHT22;13191;47.472;11.214;2023-04-08T12:57:32;4.90;99.90
25248;DHT22;13191;47.472;11.214;2023-04-08T12:59:59;4.90;99.90
25248;DHT22;13191;47.472;11.214;2023-04-08T13:02:25;4.80;99.90
25248;DHT22;13191;47.472;11.214;2023-04-08T13:04:52;4.80;99.90
25248;DHT22;13191;47.472;11.214;2023-04-08T13:07:18;4.80;99.90
25248;DHT22;13191;47.472;11.214;2023-04-08T13:09:43;4.90;99.90
25248;DHT22;13191;47.472;11.214;2023-04-08T13:12:09;4.80;99.90
25248;DHT22;13191;47.472;11.214;2023-04-08T13:14:37;4.90;99.90
25248;DHT22;13191;47.472;11.214;2023-04-08T13:17:02;4.80;99.90
25248;DHT22;13191;47.472;11.214;2023-04-08T13:19:28;4.80;99.90
25248;DHT22;13191;47.472;11.214;2023-04-08T13:21:53;4.80;99.90
25248;DHT22;13191;47.472;11.214;2023-04-08T13:24:19;4.70;99.90
25248;DHT22;13191;47.472;11.214;2023-04-08T13:26:44;4.80;99.90
25248;DHT22;13191;47.472;11.214;2023-04-08T13:29:10;4.70;99.90
25248;DHT22;13191;47.472;11.214;2023-04-08T13:31:35;4.80;99.90
25248;DHT22;13191;47.472;11.214;2023-04-08T13:34:01;4.70;99.90
25248;DHT22;13191;47.472;11.214;2023-04-08T13:36:28;4.70;99.90
25248;DHT22;13191;47.472;11.214;2023-04-08T13:38:55;4.80;99.90
25248;DHT22;13191;47.472;11.214;2023-04-08T13:41:21;4.80;99.90
25248;DHT22;13191;47.472;11.214;2023-04-08T13:43:46;4.70;99.90
25248;DHT22;13191;47.472;11.214;2023-04-08T13:46:12;4.70;99.90
25248;DHT22;13191;47.472;11.214;2023-04-08T13:48:37;4.70;99.90
25248;DHT22;13191;47.472;11.214;2023-04-08T13:51:04;4.70;99.90
25248;DHT22;13191;47.472;11.214;2023-04-08T13:53:30;4.70;99.90
25248;DHT22;13191;47.472;11.214;2023-04-08T13:55:56;4.70;99.90
25248;DHT22;13191;47.472;11.214;2023-04-08T13:58:25;4.70;99.90
25248;DHT22;13191;47.472;11.214;2023-04-08T14:00:51;4.70;99.90
25248;DHT22;13191;47.472;11.214;2023-04-08T14:03:17;4.60;99.90
25248;DHT22;13191;47.472;11.214;2023-04-08T14:05:42;4.70;99.90
25248;DHT22;13191;47.472;11.214;2023-04-08T14:08:10;4.70;99.90
25248;DHT22;13191;47.472;11.214;2023-04-08T14:10:37;4.70;99.90
25248;DHT22;13191;47.472;11.214;2023-04-08T14:13:03;4.70;99.90
25248;DHT22;13191;47.472;11.214;2023-04-08T14:15:30;4.70;99.90
25248;DHT22;13191;47.472;11.214;2023-04-08T14:17:55;4.60;99.90
25248;DHT22;13191;47.472;11.214;2023-04-08T14:20:21;4.60;99.90
25248;DHT22;13191;47.472;11.214;2023-04-08T14:22:46;4.70;99.90
25248;DHT22;13191;47.472;11.214;2023-04-08T14:25:12;4.70;99.90
25248;DHT22;13191;47.472;11.214;2023-04-08T14:27:37;4.70;99.90
25248;DHT22;13191;47.472;11.214;2023-04-08T14:30:03;4.70;99.90
25248;DHT22;13191;47.472;11.214;2023-04-08T14:32:33;4.70;99.90
25248;DHT22;13191;47.472;11.214;2023-04-08T14:34:58;4.70;99.90
25248;DHT22;13191;47.472;11.214;2023-04-08T14:37:25;4.70;99.90
25248;DHT22;13191;47.472;11.214;2023-04-08T14:39:50;4.70;99.90
25248;DHT22;13191;47.472;11.214;2023-04-08T14:42:17;4.60;99.90
25248;DHT22;13191;47.472;11.214;2023-04-08T14:44:42;4.60;99.90
25248;DHT22;13191;47.472;11.214;2023-04-08T14:47:12;4.60;99.90
25248;DHT22;13191;47.472;11.214;2023-04-08T14:49:40;4.60;99.90
25248;DHT22;13191;47.472;11.214;2023-04-08T14:52:06;4.50;99.90
25248;DHT22;13191;47.472;11.214;2023-04-08T14:54:34;4.50;99.90
25248;DHT22;13191;47.472;11.214;2023-04-08T14:57:00;4.50;99.90
25248;DHT22;13191;47.472;11.214;2023-04-08T14:59:29;4.50;99.90
25248;DHT22;13191;47.472;11.214;2023-04-08T15:01:57;4.50;99.90
25248;DHT22;13191;47.472;11.214;2023-04-08T15:04:23;4.50;99.90
25248;DHT22;13191;47.472;11.214;2023-04-08T15:06:48;4.50;99.90
25248;DHT22;13191;47.472;11.214;2023-04-08T15:09:15;4.40;99.90
25248;DHT22;13191;47.472;11.214;2023-04-08T15:11:41;4.40;99.90
25248;DHT22;13191;47.472;11.214;2023-04-08T15:14:06;4.40;99.90
25248;DHT22;13191;47.472;11.214;2023-04-08T15:16:32;4.30;99.90
25248;DHT22;13191;47.472;11.214;2023-04-08T15:18:57;4.20;99.90
25248;DHT22;13191;47.472;11.214;2023-04-08T15:21:26;4.10;99.90
25248;DHT22;13191;47.472;11.214;2023-04-08T15:23:52;3.90;99.90
25248;DHT22;13191;47.472;11.214;2023-04-08T15:26:18;4.00;99.90
25248;DHT22;13191;47.472;11.214;2023-04-08T15:28:46;4.00;99.90
25248;DHT22;13191;47.472;11.214;2023-04-08T15:31:12;4.10;99.90
25248;DHT22;13191;47.472;11.214;2023-04-08T15:33:37;4.10;99.90
25248;DHT22;13191;47.472;11.214;2023-04-08T15:36:06;4.10;99.90
25248;DHT22;13191;47.472;11.214;2023-04-08T15:38:31;4.10;99.90
25248;DHT22;13191;47.472;11.214;2023-04-08T15:41:01;4.20;99.90